createdAt,value
2023-01-28T00:00:50.492Z,102351.56
2023-01-28T00:03:53.839Z,102350.72
2023-01-28T00:06:56.433Z,102348.00
2023-01-28T00:09:57.706Z,102355.25
2023-01-28T00:12:59.925Z,102360.50
2023-01-28T00:16:04.132Z,102362.09
2023-01-28T00:19:06.810Z,102369.50
2023-01-28T00:22:09.464Z,102362.25
2023-01-28T00:25:11.246Z,102370.75
2023-01-28T00:28:13.226Z,102373.19
2023-01-28T00:31:16.618Z,102375.88
2023-01-28T00:34:17.964Z,102361.56
2023-01-28T00:37:20.555Z,102367.91
2023-01-28T00:40:21.832Z,102366.94
2023-01-28T00:43:25.342Z,102367.81
2023-01-28T00:46:27.168Z,102375.75
2023-01-28T00:49:29.664Z,102364.25
2023-01-28T00:52:32.284Z,102366.81
2023-01-28T00:55:33.652Z,102365.66
2023-01-28T00:58:37.070Z,102368.66
2023-01-28T01:01:38.673Z,102368.59
2023-01-28T01:04:41.375Z,102367.31
2023-01-28T01:07:42.862Z,102364.50
2023-01-28T01:10:44.189Z,102368.88
2023-01-28T01:13:51.398Z,102370.72
2023-01-28T01:20:15.881Z,102370.41
2023-01-28T01:23:17.165Z,102377.22
2023-01-28T01:26:18.719Z,102373.22
2023-01-28T01:29:21.917Z,102362.84
2023-01-28T01:32:23.220Z,102368.50
2023-01-28T01:35:26.514Z,102367.19
2023-01-28T01:38:27.934Z,102368.34
2023-01-28T01:41:32.128Z,102375.97
2023-01-28T01:44:55.317Z,102372.28
2023-01-28T01:48:02.331Z,102374.84
2023-01-28T01:51:10.294Z,102375.53
2023-01-28T01:54:13.041Z,102383.19
2023-01-28T01:57:18.103Z,102374.56
2023-01-28T02:00:21.580Z,102379.66
2023-01-28T02:03:30.651Z,102381.19
2023-01-28T02:06:34.477Z,102390.53
2023-01-28T02:09:37.671Z,102388.13
2023-01-28T02:12:44.143Z,102385.13
2023-01-28T02:15:48.709Z,102381.59
2023-01-28T02:18:50.013Z,102382.44
2023-01-28T02:22:29.981Z,102376.44
2023-01-28T02:26:01.432Z,102382.53
2023-01-28T02:29:09.885Z,102379.13
2023-01-28T02:32:18.542Z,102378.53
2023-01-28T02:35:28.680Z,102385.63
2023-01-28T02:38:36.557Z,102387.63
2023-01-28T02:41:43.359Z,102390.31
2023-01-28T02:44:46.587Z,102395.03
2023-01-28T02:51:32.591Z,102388.75
2023-01-28T02:54:42.924Z,102392.88
2023-01-28T02:57:57.890Z,102386.09
2023-01-28T03:01:10.764Z,102386.41
2023-01-28T03:07:43.801Z,102394.34
2023-01-28T03:10:46.133Z,102386.78
2023-01-28T03:14:05.702Z,102387.47
2023-01-28T03:17:33.943Z,102382.06
2023-01-28T03:21:00.198Z,102375.81
2023-01-28T03:24:25.938Z,102385.78
2023-01-28T03:27:52.057Z,102383.78
2023-01-28T03:31:20.977Z,102385.88
2023-01-28T03:38:18.061Z,102383.56
2023-01-28T03:41:21.872Z,102386.84
2023-01-28T03:44:44.138Z,102394.78
2023-01-28T03:47:45.716Z,102387.53
2023-01-28T03:50:49.785Z,102389.91
2023-01-28T03:53:51.128Z,102383.19
2023-01-28T03:56:52.419Z,102379.34
2023-01-28T03:59:54.685Z,102380.06
2023-01-28T04:02:55.991Z,102381.91
2023-01-28T04:06:01.406Z,102375.66
2023-01-28T04:09:05.127Z,102377.72
2023-01-28T04:12:07.781Z,102377.19
2023-01-28T04:15:15.062Z,102381.06
2023-01-28T04:18:16.911Z,102382.59
2023-01-28T04:21:21.123Z,102379.75
2023-01-28T04:24:23.352Z,102380.59
2023-01-28T04:27:24.797Z,102376.03
2023-01-28T04:30:27.649Z,102391.09
2023-01-28T04:33:29.015Z,102388.69
2023-01-28T04:36:32.302Z,102391.72
2023-01-28T04:39:34.849Z,102387.84
2023-01-28T04:42:37.399Z,102387.69
2023-01-28T04:45:38.676Z,102381.81
2023-01-28T04:48:41.262Z,102381.81
2023-01-28T04:51:43.170Z,102374.88
2023-01-28T04:58:05.863Z,102373.03
2023-01-28T05:01:07.230Z,102381.75
2023-01-28T05:04:10.403Z,102385.38
2023-01-28T05:07:12.468Z,102381.81
2023-01-28T05:10:13.834Z,102396.81
2023-01-28T05:13:16.623Z,102405.59
2023-01-28T05:16:17.920Z,102401.13
2023-01-28T05:22:43.386Z,102400.50
2023-01-28T05:25:45.119Z,102411.31
2023-01-28T05:28:47.697Z,102409.63
2023-01-28T05:31:50.288Z,102406.06
2023-01-28T05:38:13.661Z,102406.31
2023-01-28T05:44:37.161Z,102399.06
2023-01-28T05:47:38.593Z,102403.63
2023-01-28T05:50:40.387Z,102399.75
2023-01-28T05:53:43.546Z,102410.41
2023-01-28T05:56:46.699Z,102410.25
2023-01-28T05:59:49.270Z,102403.63
2023-01-28T06:02:51.233Z,102400.34
2023-01-28T06:05:53.793Z,102403.63
2023-01-28T06:08:56.993Z,102406.44
2023-01-28T06:11:58.989Z,102412.56
2023-01-28T06:15:00.346Z,102402.91
2023-01-28T06:18:01.788Z,102419.28
2023-01-28T06:21:03.478Z,102408.31
2023-01-28T06:24:05.813Z,102413.09
2023-01-28T06:27:07.189Z,102415.97
2023-01-28T06:30:09.800Z,102418.03
2023-01-28T06:33:12.350Z,102419.75
2023-01-28T06:36:13.665Z,102420.44
2023-01-28T06:39:16.938Z,102423.00
2023-01-28T06:42:18.393Z,102417.34
2023-01-28T06:45:21.006Z,102417.88
2023-01-28T06:48:22.481Z,102430.50
2023-01-28T06:51:25.230Z,102421.84
2023-01-28T06:54:27.174Z,102423.38
2023-01-28T06:57:28.489Z,102431.34
2023-01-28T07:00:31.134Z,102440.53
2023-01-28T07:03:32.576Z,102431.94
2023-01-28T07:06:34.168Z,102434.28
2023-01-28T07:09:39.614Z,102439.38
2023-01-28T07:12:41.018Z,102442.09
2023-01-28T07:15:43.606Z,102444.94
2023-01-28T07:18:45.147Z,102444.63
2023-01-28T07:21:47.675Z,102440.69
2023-01-28T07:24:50.895Z,102437.00
2023-01-28T07:27:53.195Z,102431.25
2023-01-28T07:30:58.173Z,102436.34
2023-01-28T07:33:59.493Z,102430.63
2023-01-28T07:37:03.866Z,102432.47
2023-01-28T07:40:07.782Z,102427.75
2023-01-28T07:43:10.688Z,102432.56
2023-01-28T07:46:13.483Z,102432.09
2023-01-28T07:49:14.856Z,102433.63
2023-01-28T07:52:17.721Z,102433.50
2023-01-28T07:55:19.746Z,102440.22
2023-01-28T07:58:21.022Z,102435.66
2023-01-28T08:04:43.934Z,102448.03
2023-01-28T08:07:48.830Z,102442.94
2023-01-28T08:10:51.253Z,102448.69
2023-01-28T08:13:52.586Z,102456.56
2023-01-28T08:16:55.242Z,102462.00
2023-01-28T08:19:56.592Z,102460.78
2023-01-28T08:23:07.098Z,102467.56
2023-01-28T08:26:11.600Z,102470.44
2023-01-28T08:29:12.920Z,102473.31
2023-01-28T08:32:15.490Z,102467.56
2023-01-28T08:35:17.464Z,102474.84
2023-01-28T08:38:19.685Z,102484.38
2023-01-28T08:41:23.810Z,102475.66
2023-01-28T08:44:25.513Z,102482.94
2023-01-28T08:47:26.955Z,102482.78
2023-01-28T08:50:31.793Z,102482.63
2023-01-28T08:53:34.516Z,102470.59
2023-01-28T08:56:38.354Z,102475.69
2023-01-28T08:59:44.219Z,102481.19
2023-01-28T09:02:46.945Z,102492.69
2023-01-28T09:05:48.854Z,102496.28
2023-01-28T09:08:51.657Z,102505.53
2023-01-28T09:11:55.348Z,102502.44
2023-01-28T09:14:56.720Z,102498.50
2023-01-28T09:17:59.559Z,102508.94
2023-01-28T09:21:05.855Z,102507.41
2023-01-28T09:24:10.858Z,102509.72
2023-01-28T09:27:13.097Z,102516.09
2023-01-28T09:30:15.699Z,102516.94
2023-01-28T09:33:18.859Z,102523.00
2023-01-28T09:36:20.236Z,102517.28
2023-01-28T09:39:22.603Z,102526.59
2023-01-28T09:42:43.509Z,102524.78
2023-01-28T09:45:47.448Z,102531.06
2023-01-28T09:48:52.869Z,102530.03
2023-01-28T09:51:57.020Z,102528.97
2023-01-28T09:55:02.999Z,102525.41
2023-01-28T09:58:11.465Z,102534.09
2023-01-28T10:01:38.438Z,102530.38
2023-01-28T10:04:52.771Z,102531.91
2023-01-28T10:08:00.134Z,102528.53
2023-01-28T10:11:11.888Z,102524.13
2023-01-28T10:14:27.313Z,102531.97
2023-01-28T10:17:31.900Z,102539.31
2023-01-28T10:20:38.607Z,102512.38
2023-01-28T10:23:46.919Z,102514.91
2023-01-28T10:26:48.677Z,102522.63
2023-01-28T10:29:53.418Z,102515.16
2023-01-28T10:33:01.471Z,102512.56
2023-01-28T10:36:04.962Z,102513.13
2023-01-28T10:39:08.288Z,102515.78
2023-01-28T10:42:20.319Z,102518.50
2023-01-28T10:45:30.133Z,102510.69
2023-01-28T10:48:34.453Z,102496.97
2023-01-28T10:51:41.458Z,102501.88
2023-01-28T10:54:43.398Z,102505.44
2023-01-28T10:57:51.176Z,102505.91
2023-01-28T11:00:55.766Z,102507.63
2023-01-28T11:03:59.850Z,102516.38
2023-01-28T11:07:02.825Z,102513.72
2023-01-28T11:10:26.744Z,102511.88
2023-01-28T11:13:29.520Z,102516.78
2023-01-28T11:16:34.006Z,102507.25
2023-01-28T11:19:36.837Z,102497.78
2023-01-28T11:22:42.823Z,102490.69
2023-01-28T11:25:44.690Z,102491.03
2023-01-28T11:28:46.766Z,102500.34
2023-01-28T11:31:49.336Z,102492.22
2023-01-28T11:34:52.991Z,102485.41
2023-01-28T11:37:54.742Z,102486.47
2023-01-28T11:41:00.203Z,102481.50
2023-01-28T11:44:15.445Z,102468.63
2023-01-28T11:47:49.090Z,102470.13
2023-01-28T11:51:00.418Z,102479.84
2023-01-28T11:54:14.923Z,102466.47
2023-01-28T11:57:23.080Z,102468.09
2023-01-28T12:00:36.873Z,102469.44
2023-01-28T12:04:10.056Z,102468.09
2023-01-28T12:07:30.828Z,102462.88
2023-01-28T12:10:40.913Z,102462.72
2023-01-28T12:13:56.129Z,102457.66
2023-01-28T12:17:12.590Z,102457.09
2023-01-28T12:23:57.126Z,102462.00
2023-01-28T12:27:09.278Z,102462.19
2023-01-28T12:30:21.603Z,102460.50
2023-01-28T12:33:41.642Z,102458.81
2023-01-28T12:36:54.767Z,102454.72
2023-01-28T12:40:11.318Z,102451.16
2023-01-28T12:43:17.407Z,102453.63
2023-01-28T12:46:30.175Z,102453.47
2023-01-28T12:49:37.493Z,102443.31
2023-01-28T12:52:47.621Z,102441.84
2023-01-28T12:55:55.648Z,102446.38
2023-01-28T12:59:01.173Z,102434.34
2023-01-28T13:02:22.645Z,102421.78
2023-01-28T13:05:33.227Z,102418.28
2023-01-28T13:08:36.120Z,102413.50
2023-01-28T13:11:39.914Z,102407.41
2023-01-28T13:14:42.076Z,102408.56
2023-01-28T13:17:57.162Z,102401.97
2023-01-28T13:21:01.096Z,102412.34
2023-01-28T13:24:20.291Z,102404.22
2023-01-28T13:27:24.764Z,102403.56
2023-01-28T13:30:31.032Z,102402.03
2023-01-28T13:33:37.544Z,102390.84
2023-01-28T13:36:45.296Z,102399.13
2023-01-28T13:39:50.818Z,102404.41
2023-01-28T13:43:03.263Z,102396.13
2023-01-28T13:46:07.908Z,102397.47
2023-01-28T13:49:15.552Z,102393.75
2023-01-28T13:52:22.806Z,102386.78
2023-01-28T13:55:43.584Z,102385.25
2023-01-28T13:59:18.336Z,102386.09
2023-01-28T14:02:55.770Z,102381.38
2023-01-28T14:06:22.537Z,102375.44
2023-01-28T14:09:46.122Z,102359.16
2023-01-28T14:13:22.304Z,102361.53
2023-01-28T14:16:34.443Z,102374.72
2023-01-28T14:19:38.339Z,102379.16
2023-01-28T14:22:42.855Z,102369.97
2023-01-28T14:25:59.332Z,102393.22
2023-01-28T14:29:17.298Z,102404.94
2023-01-28T14:32:26.288Z,102401.19
2023-01-28T14:35:32.200Z,102399.81
2023-01-28T14:38:40.294Z,102401.00
2023-01-28T14:41:44.507Z,102405.91
2023-01-28T14:45:03.671Z,102400.66
2023-01-28T14:48:24.963Z,102408.78
2023-01-28T14:51:48.763Z,102403.84
2023-01-28T14:55:03.273Z,102398.06
2023-01-28T14:58:08.861Z,102397.19
2023-01-28T15:01:20.753Z,102409.91
2023-01-28T15:04:27.843Z,102409.63
2023-01-28T15:10:56.964Z,102399.19
2023-01-28T15:14:01.824Z,102401.59
2023-01-28T15:17:04.329Z,102400.38
2023-01-28T15:20:17.720Z,102392.91
2023-01-28T15:23:27.277Z,102393.09
2023-01-28T15:26:31.500Z,102390.50
2023-01-28T15:29:37.086Z,102380.00
2023-01-28T15:32:39.042Z,102398.56
2023-01-28T15:35:48.181Z,102397.41
2023-01-28T15:38:49.815Z,102401.16
2023-01-28T15:41:56.499Z,102406.47
2023-01-28T15:48:22.574Z,102410.94
2023-01-28T15:51:26.959Z,102407.72
2023-01-28T15:54:29.888Z,102417.28
2023-01-28T15:57:34.969Z,102420.53
2023-01-28T16:00:38.099Z,102433.09
2023-01-28T16:03:43.209Z,102438.16
2023-01-28T16:06:46.170Z,102439.56
2023-01-28T16:09:52.422Z,102439.38
2023-01-28T16:16:32.935Z,102420.41
2023-01-28T16:19:39.836Z,102423.25
2023-01-28T16:22:44.351Z,102416.47
2023-01-28T16:29:15.409Z,102418.13
2023-01-28T16:32:34.041Z,102433.56
2023-01-28T16:36:01.245Z,102433.44
2023-01-28T16:39:00.689Z,102430.09
2023-01-28T16:42:02.077Z,102429.22
2023-01-28T16:45:04.311Z,102427.88
2023-01-28T16:48:06.654Z,102432.59
2023-01-28T16:51:15.806Z,102438.09
2023-01-28T16:54:17.819Z,102448.50
2023-01-28T16:57:21.414Z,102452.91
2023-01-28T17:00:26.253Z,102440.06
2023-01-28T17:03:29.116Z,102450.13
2023-01-28T17:06:31.243Z,102457.38
2023-01-28T17:09:34.366Z,102461.53
2023-01-28T17:12:37.048Z,102468.34
2023-01-28T17:15:38.443Z,102470.13
2023-01-28T17:18:40.982Z,102470.28
2023-01-28T17:21:42.971Z,102484.16
2023-01-28T17:24:46.875Z,102492.44
2023-01-28T17:27:50.059Z,102488.56
2023-01-28T17:30:52.742Z,102479.72
2023-01-28T17:33:56.615Z,102495.84
2023-01-28T17:36:58.970Z,102489.59
2023-01-28T17:40:01.578Z,102469.88
2023-01-28T17:43:05.497Z,102453.75
2023-01-28T17:46:12.308Z,102470.50
2023-01-28T17:49:15.451Z,102460.31
2023-01-28T17:52:17.479Z,102468.44
2023-01-28T17:55:20.327Z,102458.00
2023-01-28T17:58:21.917Z,102479.91
2023-01-28T18:01:24.781Z,102475.97
2023-01-28T18:04:26.121Z,102463.78
2023-01-28T18:07:29.636Z,102477.88
2023-01-28T18:10:31.197Z,102479.84
2023-01-28T18:16:57.414Z,102448.09
2023-01-28T18:19:59.222Z,102452.13
2023-01-28T18:23:03.066Z,102475.03
2023-01-28T18:26:06.628Z,102469.72
2023-01-28T18:29:08.309Z,102465.75
2023-01-28T18:32:11.386Z,102466.22
2023-01-28T18:35:13.749Z,102473.50
2023-01-28T18:38:19.028Z,102468.09
2023-01-28T18:41:20.338Z,102459.00
2023-01-28T18:44:24.418Z,102462.69
2023-01-28T18:47:26.576Z,102464.81
2023-01-28T18:50:29.914Z,102470.91
2023-01-28T18:53:33.323Z,102469.88
2023-01-28T18:59:55.902Z,102459.66
2023-01-28T19:02:58.532Z,102467.91
2023-01-28T19:06:04.034Z,102456.56
2023-01-28T19:09:08.080Z,102457.25
2023-01-28T19:12:09.350Z,102460.50
2023-01-28T19:15:10.991Z,102464.59
2023-01-28T19:18:12.359Z,102463.88
2023-01-28T19:21:15.779Z,102456.34
2023-01-28T19:24:17.762Z,102460.88
2023-01-28T19:27:19.300Z,102461.34
2023-01-28T19:30:20.749Z,102453.06
2023-01-28T19:33:22.357Z,102459.66
2023-01-28T19:36:25.248Z,102451.75
2023-01-28T19:42:52.433Z,102453.78
2023-01-28T19:45:57.872Z,102453.25
2023-01-28T19:48:59.610Z,102467.06
2023-01-28T19:52:04.337Z,102475.19
2023-01-28T19:55:08.238Z,102475.75
2023-01-28T19:58:12.664Z,102481.22
2023-01-28T20:01:16.591Z,102493.13
2023-01-28T20:04:18.341Z,102504.06
2023-01-28T20:07:19.990Z,102503.34
2023-01-28T20:10:23.948Z,102493.97
2023-01-28T20:13:25.821Z,102489.44
2023-01-28T20:16:30.941Z,102476.06
2023-01-28T20:19:35.524Z,102479.78
2023-01-28T20:22:38.604Z,102474.69
2023-01-28T20:25:40.777Z,102465.28
2023-01-28T20:32:16.280Z,102456.63
2023-01-28T20:35:20.333Z,102463.28
2023-01-28T20:38:22.090Z,102462.03
2023-01-28T20:41:26.291Z,102457.63
2023-01-28T20:44:33.342Z,102458.25
2023-01-28T20:47:34.872Z,102458.94
2023-01-28T20:50:37.626Z,102458.25
2023-01-28T20:53:40.673Z,102452.25
2023-01-28T20:56:44.450Z,102455.81
2023-01-28T20:59:47.875Z,102457.81
2023-01-28T21:02:49.690Z,102456.28
2023-01-28T21:09:13.752Z,102459.00
2023-01-28T21:12:18.482Z,102467.09
2023-01-28T21:15:21.350Z,102457.59
2023-01-28T21:18:25.615Z,102459.44
2023-01-28T21:21:28.651Z,102454.47
2023-01-28T21:24:31.450Z,102431.16
2023-01-28T21:27:34.961Z,102437.56
2023-01-28T21:30:38.001Z,102440.00
2023-01-28T21:33:39.596Z,102439.25
2023-01-28T21:36:42.655Z,102446.25
2023-01-28T21:39:44.368Z,102441.97
2023-01-28T21:42:48.220Z,102441.13
2023-01-28T21:45:54.961Z,102438.41
2023-01-28T21:48:59.319Z,102441.09
2023-01-28T21:52:00.701Z,102425.34
2023-01-28T21:55:03.972Z,102430.31
2023-01-28T21:58:21.968Z,102427.75
2023-01-28T22:01:23.578Z,102425.38
2023-01-28T22:04:27.544Z,102419.59
2023-01-28T22:07:29.320Z,102417.59
2023-01-28T22:10:32.089Z,102421.09
2023-01-28T22:13:36.063Z,102418.84
2023-01-28T22:16:44.253Z,102406.34
2023-01-28T22:19:48.850Z,102407.22
2023-01-28T22:22:50.310Z,102423.69
2023-01-28T22:25:53.280Z,102421.38
2023-01-28T22:28:55.378Z,102415.28
2023-01-28T22:31:58.102Z,102413.09
2023-01-28T22:35:02.609Z,102413.00
2023-01-28T22:38:04.100Z,102414.72
2023-01-28T22:41:07.960Z,102424.22
2023-01-28T22:44:10.574Z,102426.72
2023-01-28T22:47:12.912Z,102413.38
2023-01-28T22:50:15.836Z,102412.94
2023-01-28T22:53:17.597Z,102409.13
2023-01-28T22:56:22.351Z,102398.75
2023-01-28T22:59:24.530Z,102398.63
2023-01-28T23:02:27.580Z,102395.88
2023-01-28T23:08:51.101Z,102386.94
2023-01-28T23:11:53.810Z,102378.09
2023-01-28T23:15:13.872Z,102376.34
2023-01-28T23:18:37.571Z,102375.09
2023-01-28T23:22:05.538Z,102379.31
2023-01-28T23:25:07.941Z,102367.44
2023-01-28T23:28:09.722Z,102356.84
2023-01-28T23:31:12.079Z,102355.84
2023-01-28T23:34:14.822Z,102359.34
2023-01-28T23:37:16.517Z,102359.78
2023-01-28T23:40:20.528Z,102361.50
2023-01-28T23:43:22.168Z,102356.56
2023-01-28T23:46:37.790Z,102350.38
2023-01-28T23:49:42.397Z,102349.00
2023-01-28T23:52:45.204Z,102344.19
2023-01-28T23:55:46.738Z,102332.34
2023-01-28T23:58:49.733Z,102323.16
